createdAt,value
2023-01-06T00:00:12.215Z,5.37
2023-01-06T00:02:41.893Z,5.73
2023-01-06T00:05:11.490Z,5.82
2023-01-06T00:07:40.206Z,6.07
2023-01-06T00:10:10.326Z,5.97
2023-01-06T00:12:39.066Z,5.43
2023-01-06T00:15:08.929Z,5.07
2023-01-06T00:17:37.242Z,4.72
2023-01-06T00:20:08.521Z,4.65
2023-01-06T00:22:37.127Z,3.97
2023-01-06T00:25:07.128Z,4.45
2023-01-06T00:27:35.835Z,4.00
2023-01-06T00:30:04.413Z,4.53
2023-01-06T00:32:34.143Z,4.33
2023-01-06T00:35:03.067Z,7.33
2023-01-06T00:37:33.093Z,6.03
2023-01-06T00:40:02.146Z,4.23
2023-01-06T00:42:30.555Z,4.13
2023-01-06T00:44:59.475Z,4.50
2023-01-06T00:47:28.626Z,4.47
2023-01-06T00:49:56.945Z,4.90
2023-01-06T00:52:25.721Z,4.53
2023-01-06T00:54:55.415Z,4.90
2023-01-06T00:57:24.690Z,4.27
2023-01-06T00:59:53.587Z,3.75
2023-01-06T01:02:22.654Z,4.43
2023-01-06T01:04:51.710Z,3.80
2023-01-06T01:07:20.083Z,3.75
2023-01-06T01:09:48.660Z,3.33
2023-01-06T01:12:19.161Z,3.70
2023-01-06T01:14:49.168Z,3.87
2023-01-06T01:17:20.703Z,4.00
2023-01-06T01:19:50.698Z,4.27
2023-01-06T01:22:19.570Z,4.13
2023-01-06T01:24:47.937Z,3.55
2023-01-06T01:27:19.694Z,4.40
2023-01-06T01:29:48.035Z,3.60
2023-01-06T01:32:16.985Z,3.60
2023-01-06T01:34:45.801Z,3.95
2023-01-06T01:37:14.247Z,4.07
2023-01-06T01:39:43.500Z,4.80
2023-01-06T01:42:19.456Z,4.47
2023-01-06T01:45:04.202Z,4.17
2023-01-06T01:47:49.035Z,4.63
2023-01-06T01:50:32.081Z,4.80
2023-01-06T01:53:04.993Z,5.13
2023-01-06T01:55:35.286Z,4.90
2023-01-06T01:58:09.069Z,4.87
2023-01-06T02:00:41.367Z,4.47
2023-01-06T02:03:11.393Z,6.03
2023-01-06T02:05:45.204Z,7.13
2023-01-06T02:08:23.771Z,6.43
2023-01-06T02:10:53.033Z,7.23
2023-01-06T02:13:22.931Z,7.10
2023-01-06T02:16:01.539Z,9.13
2023-01-06T02:18:54.710Z,9.53
2023-01-06T02:21:38.638Z,8.17
2023-01-06T02:24:26.809Z,10.50
2023-01-06T02:27:35.304Z,8.17
2023-01-06T02:30:37.066Z,9.85
2023-01-06T02:33:16.063Z,14.13
2023-01-06T02:36:11.871Z,9.23
2023-01-06T02:38:56.097Z,7.85
2023-01-06T02:41:34.704Z,7.73
2023-01-06T02:44:14.352Z,7.20
2023-01-06T02:47:10.031Z,6.57
2023-01-06T02:49:48.365Z,8.00
2023-01-06T02:52:24.416Z,7.43
2023-01-06T02:54:58.259Z,9.03
2023-01-06T02:57:31.706Z,8.17
2023-01-06T03:00:07.798Z,9.00
2023-01-06T03:02:39.500Z,12.87
2023-01-06T03:05:13.166Z,7.70
2023-01-06T03:07:44.200Z,8.63
2023-01-06T03:10:16.357Z,9.87
2023-01-06T03:12:52.741Z,8.80
2023-01-06T03:15:22.790Z,7.93
2023-01-06T03:17:51.693Z,8.13
2023-01-06T03:20:23.011Z,6.67
2023-01-06T03:22:51.367Z,13.77
2023-01-06T03:25:20.681Z,10.80
2023-01-06T03:27:50.500Z,13.00
2023-01-06T03:30:20.669Z,11.83
2023-01-06T03:33:00.069Z,13.07
2023-01-06T03:35:48.718Z,10.80
2023-01-06T03:38:28.248Z,18.63
2023-01-06T03:41:03.694Z,21.50
2023-01-06T03:43:40.159Z,15.97
2023-01-06T03:46:22.619Z,15.67
2023-01-06T03:48:59.327Z,15.10
2023-01-06T03:51:45.619Z,14.43
2023-01-06T03:54:30.801Z,16.17
2023-01-06T03:57:06.563Z,14.67
2023-01-06T03:59:39.241Z,14.33
2023-01-06T04:02:09.869Z,13.00
2023-01-06T04:04:38.704Z,13.07
2023-01-06T04:07:09.756Z,10.23
2023-01-06T04:09:41.990Z,9.77
2023-01-06T04:12:27.550Z,8.87
2023-01-06T04:14:56.472Z,8.33
2023-01-06T04:17:24.896Z,6.57
2023-01-06T04:19:54.427Z,7.57
2023-01-06T04:22:24.705Z,6.20
2023-01-06T04:24:53.125Z,5.00
2023-01-06T04:27:21.595Z,5.30
2023-01-06T04:29:50.875Z,5.47
2023-01-06T04:32:19.440Z,14.43
2023-01-06T04:34:48.576Z,6.67
2023-01-06T04:37:17.664Z,7.07
2023-01-06T04:39:47.414Z,6.63
2023-01-06T04:42:16.871Z,7.10
2023-01-06T04:44:45.238Z,6.90
2023-01-06T04:47:14.260Z,8.47
2023-01-06T04:49:42.891Z,6.40
2023-01-06T04:52:11.561Z,5.67
2023-01-06T04:54:40.452Z,6.03
2023-01-06T04:57:10.137Z,5.63
2023-01-06T04:59:39.149Z,5.53
2023-01-06T05:02:07.547Z,5.77
2023-01-06T05:04:46.955Z,6.47
2023-01-06T05:07:16.327Z,5.30
2023-01-06T05:09:45.313Z,5.10
2023-01-06T05:12:15.010Z,6.47
2023-01-06T05:14:43.894Z,5.97
2023-01-06T05:17:12.626Z,5.20
2023-01-06T05:19:42.927Z,9.93
2023-01-06T05:22:12.343Z,11.97
2023-01-06T05:24:40.638Z,9.73
2023-01-06T05:27:09.872Z,6.93
2023-01-06T05:29:39.594Z,6.57
2023-01-06T05:32:08.796Z,10.83
2023-01-06T05:34:37.136Z,8.00
2023-01-06T05:37:06.317Z,9.00
2023-01-06T05:39:34.710Z,8.70
2023-01-06T05:42:04.006Z,10.40
2023-01-06T05:44:32.656Z,8.60
2023-01-06T05:47:03.251Z,10.97
2023-01-06T05:49:31.643Z,8.40
2023-01-06T05:52:00.072Z,9.13
2023-01-06T05:54:28.443Z,7.43
2023-01-06T05:56:57.876Z,9.83
2023-01-06T05:59:26.759Z,9.50
2023-01-06T06:01:55.333Z,8.97
2023-01-06T06:04:25.112Z,9.77
2023-01-06T06:06:53.740Z,8.80
2023-01-06T06:09:22.082Z,9.53
2023-01-06T06:11:51.919Z,10.17
2023-01-06T06:14:20.769Z,9.70
2023-01-06T06:16:49.231Z,8.57
2023-01-06T06:19:18.148Z,7.67
2023-01-06T06:21:47.841Z,7.03
2023-01-06T06:24:16.517Z,6.90
2023-01-06T06:26:45.605Z,5.90
2023-01-06T06:29:14.504Z,5.10
2023-01-06T06:31:44.164Z,6.10
2023-01-06T06:34:14.594Z,4.90
2023-01-06T06:36:43.502Z,5.20
2023-01-06T06:39:13.593Z,5.00
2023-01-06T06:41:42.139Z,3.57
2023-01-06T06:44:11.215Z,3.75
2023-01-06T06:46:40.107Z,3.30
2023-01-06T06:49:08.687Z,4.57
2023-01-06T06:51:37.966Z,3.43
2023-01-06T06:54:06.571Z,3.97
2023-01-06T06:56:37.151Z,3.20
2023-01-06T06:59:05.902Z,2.97
2023-01-06T07:01:35.404Z,3.67
2023-01-06T07:04:03.793Z,3.33
2023-01-06T07:06:33.185Z,4.00
2023-01-06T07:09:01.521Z,2.80
2023-01-06T07:11:30.915Z,3.10
2023-01-06T07:14:01.353Z,2.40
2023-01-06T07:16:30.831Z,3.50
2023-01-06T07:18:59.710Z,2.27
2023-01-06T07:21:28.020Z,2.53
2023-01-06T07:23:56.665Z,2.13
2023-01-06T07:26:25.015Z,2.30
2023-01-06T07:28:54.001Z,1.90
2023-01-06T07:31:23.824Z,1.90
2023-01-06T07:33:53.165Z,2.17
2023-01-06T07:36:21.983Z,1.73
2023-01-06T07:38:50.310Z,2.40
2023-01-06T07:41:19.192Z,2.00
2023-01-06T07:43:47.545Z,2.53
2023-01-06T07:46:16.641Z,2.50
2023-01-06T07:48:46.759Z,2.10
2023-01-06T07:51:15.524Z,2.10
2023-01-06T07:53:44.001Z,1.67
2023-01-06T07:56:13.189Z,2.27
2023-01-06T07:58:41.670Z,2.00
2023-01-06T08:01:10.458Z,2.00
2023-01-06T08:03:38.972Z,1.90
2023-01-06T08:06:10.687Z,1.70
2023-01-06T08:09:33.104Z,2.20
2023-01-06T08:12:07.112Z,1.93
2023-01-06T08:14:35.822Z,2.20
2023-01-06T08:17:04.622Z,1.57
2023-01-06T08:19:33.610Z,1.30
2023-01-06T08:22:03.886Z,1.50
2023-01-06T08:24:32.784Z,1.60
2023-01-06T08:27:01.653Z,1.50
2023-01-06T08:29:37.474Z,2.00
2023-01-06T08:32:12.050Z,2.13
2023-01-06T08:34:42.338Z,4.00
2023-01-06T08:37:14.401Z,2.20
2023-01-06T08:39:43.023Z,1.80
2023-01-06T08:42:11.803Z,1.43
2023-01-06T08:45:03.246Z,1.07
2023-01-06T08:48:12.931Z,1.30
2023-01-06T08:54:32.524Z,1.02
2023-01-06T08:57:34.211Z,1.40
2023-01-06T09:00:28.062Z,12.43
2023-01-06T09:03:17.499Z,15.60
2023-01-06T09:06:19.045Z,5.57
2023-01-06T09:08:48.623Z,2.40
2023-01-06T09:11:18.975Z,2.22
2023-01-06T09:13:48.382Z,2.22
2023-01-06T09:16:31.093Z,2.10
2023-01-06T09:19:11.077Z,2.10
2023-01-06T09:24:50.345Z,1.50
2023-01-06T09:28:34.958Z,1.48
2023-01-06T09:31:03.643Z,0.98
2023-01-06T09:41:46.098Z,1.17
2023-01-06T09:44:23.963Z,0.93
2023-01-06T09:47:07.021Z,0.75
2023-01-06T10:08:05.547Z,1.10
2023-01-06T10:18:52.617Z,1.00
2023-01-06T10:29:06.269Z,1.10
2023-01-06T11:00:56.549Z,1.40
2023-01-06T11:07:37.498Z,5.65
2023-01-06T11:59:35.635Z,1.13
2023-01-06T12:11:45.254Z,1.35
2023-01-06T12:15:18.514Z,1.10
2023-01-06T12:30:53.142Z,1.10
2023-01-06T12:34:03.115Z,1.00
2023-01-06T12:37:18.091Z,1.20
2023-01-06T12:40:32.920Z,1.10
2023-01-06T12:43:58.034Z,0.90
2023-01-06T12:47:29.775Z,4.35
2023-01-06T12:51:34.197Z,1.20
2023-01-06T12:54:30.340Z,2.15
2023-01-06T13:01:16.980Z,1.30
2023-01-06T13:08:05.075Z,10.80
2023-01-06T13:18:17.272Z,1.85
2023-01-06T13:26:08.514Z,6.25
2023-01-06T13:45:04.440Z,11.60
2023-01-06T13:48:29.063Z,12.88
2023-01-06T13:56:27.257Z,9.43
2023-01-06T13:59:33.251Z,9.65
2023-01-06T14:02:55.729Z,12.98
2023-01-06T14:09:47.098Z,8.45
2023-01-06T14:12:23.608Z,8.05
2023-01-06T14:15:01.337Z,9.32
2023-01-06T14:17:33.340Z,3.00
2023-01-06T14:20:07.050Z,2.40
2023-01-06T14:22:36.759Z,2.95
2023-01-06T14:25:09.243Z,3.20
2023-01-06T14:28:09.041Z,3.30
2023-01-06T14:30:38.436Z,2.92
2023-01-06T14:33:31.393Z,3.13
2023-01-06T14:36:05.576Z,3.05
2023-01-06T14:38:42.343Z,3.20
2023-01-06T14:41:21.543Z,3.95
2023-01-06T14:44:08.697Z,3.30
2023-01-06T14:46:42.917Z,9.23
2023-01-06T14:49:18.131Z,4.07
2023-01-06T14:51:48.401Z,3.08
2023-01-06T14:54:23.069Z,2.60
2023-01-06T14:56:55.887Z,2.50
2023-01-06T14:59:28.553Z,1.50
2023-01-06T15:02:02.612Z,1.80
2023-01-06T15:04:33.958Z,1.67
2023-01-06T15:07:15.938Z,2.20
2023-01-06T15:09:50.242Z,3.40
2023-01-06T15:12:29.044Z,3.30
2023-01-06T15:15:20.520Z,2.50
2023-01-06T15:17:49.307Z,3.55
2023-01-06T15:20:18.398Z,2.22
2023-01-06T15:22:53.641Z,1.90
2023-01-06T15:25:27.503Z,2.67
2023-01-06T15:30:51.304Z,2.65
2023-01-06T15:33:20.735Z,2.97
2023-01-06T15:35:51.853Z,2.88
2023-01-06T15:38:26.274Z,2.63
2023-01-06T15:40:55.275Z,2.42
2023-01-06T15:43:26.842Z,4.05
2023-01-06T15:46:04.526Z,3.97
2023-01-06T15:48:35.290Z,3.05
2023-01-06T15:51:12.124Z,3.38
2023-01-06T15:53:40.714Z,2.72
2023-01-06T15:56:19.312Z,3.00
2023-01-06T15:58:50.838Z,2.80
2023-01-06T16:01:23.398Z,4.63
2023-01-06T16:03:54.135Z,3.25
2023-01-06T16:06:27.074Z,6.82
2023-01-06T16:09:16.170Z,5.93
2023-01-06T16:11:59.173Z,18.20
2023-01-06T16:14:32.760Z,14.88
2023-01-06T16:17:07.937Z,5.28
2023-01-06T16:19:39.073Z,4.43
2023-01-06T16:22:18.538Z,13.82
2023-01-06T16:24:54.798Z,8.65
2023-01-06T16:27:26.422Z,8.18
2023-01-06T16:30:11.337Z,13.10
2023-01-06T16:32:41.841Z,16.27
2023-01-06T16:35:13.718Z,11.13
2023-01-06T16:37:42.211Z,7.82
2023-01-06T16:40:13.116Z,7.75
2023-01-06T16:42:44.812Z,6.70
2023-01-06T16:45:17.579Z,4.90
2023-01-06T16:47:46.588Z,4.10
2023-01-06T16:50:19.795Z,4.00
2023-01-06T16:52:53.673Z,3.70
2023-01-06T16:55:24.650Z,6.43
2023-01-06T16:57:55.576Z,5.35
2023-01-06T17:00:25.006Z,4.72
2023-01-06T17:02:55.412Z,7.60
2023-01-06T17:05:28.230Z,8.80
2023-01-06T17:07:59.643Z,9.70
2023-01-06T17:10:29.456Z,6.47
2023-01-06T17:13:20.492Z,6.43
2023-01-06T17:15:52.845Z,5.60
2023-01-06T17:18:24.794Z,3.33
2023-01-06T17:21:00.444Z,2.80
2023-01-06T17:23:29.007Z,3.10
2023-01-06T17:26:03.518Z,3.05
2023-01-06T17:28:33.597Z,3.13
2023-01-06T17:31:03.233Z,3.40
2023-01-06T17:33:32.630Z,3.28
2023-01-06T17:36:02.984Z,3.28
2023-01-06T17:38:32.639Z,9.95
2023-01-06T17:41:01.094Z,4.60
2023-01-06T17:43:34.054Z,9.30
2023-01-06T17:46:16.528Z,5.40
2023-01-06T17:48:45.629Z,4.55
2023-01-06T17:51:16.916Z,4.25
2023-01-06T17:54:03.034Z,5.05
2023-01-06T17:56:33.273Z,6.38
2023-01-06T17:59:12.277Z,6.15
2023-01-06T18:01:43.191Z,8.40
2023-01-06T18:04:15.479Z,6.78
2023-01-06T18:06:53.041Z,8.48
2023-01-06T18:09:25.529Z,6.20
2023-01-06T18:11:59.259Z,6.05
2023-01-06T18:14:33.572Z,6.38
2023-01-06T18:17:18.065Z,6.00
2023-01-06T18:19:46.678Z,5.70
2023-01-06T18:22:18.819Z,9.93
2023-01-06T18:24:48.794Z,6.90
2023-01-06T18:27:25.213Z,8.05
2023-01-06T18:29:53.959Z,9.48
2023-01-06T18:32:32.891Z,6.55
2023-01-06T18:35:03.587Z,8.88
2023-01-06T18:37:34.581Z,5.00
2023-01-06T18:40:05.893Z,5.63
2023-01-06T18:42:39.049Z,5.97
2023-01-06T18:45:19.566Z,8.32
2023-01-06T18:47:53.885Z,6.00
2023-01-06T18:50:32.552Z,4.85
2023-01-06T18:53:06.887Z,5.78
2023-01-06T18:55:38.871Z,11.38
2023-01-06T18:58:23.731Z,8.20
2023-01-06T19:00:54.770Z,8.57
2023-01-06T19:03:35.981Z,9.98
2023-01-06T19:06:34.744Z,8.40
2023-01-06T19:09:11.333Z,8.13
2023-01-06T19:11:41.603Z,10.02
2023-01-06T19:14:17.713Z,7.18
2023-01-06T19:16:52.752Z,6.35
2023-01-06T19:19:27.908Z,4.75
2023-01-06T19:22:11.483Z,4.40
2023-01-06T19:24:44.345Z,4.50
2023-01-06T19:27:33.927Z,4.97
2023-01-06T19:30:35.469Z,12.05
2023-01-06T19:33:25.204Z,10.55
2023-01-06T19:36:04.020Z,10.88
2023-01-06T19:38:37.476Z,9.13
2023-01-06T19:41:11.455Z,8.02
2023-01-06T19:43:40.003Z,10.60
2023-01-06T19:46:19.900Z,12.25
2023-01-06T19:48:48.507Z,11.63
2023-01-06T19:51:30.578Z,7.47
2023-01-06T19:54:01.192Z,6.80
2023-01-06T19:56:35.649Z,5.60
2023-01-06T19:59:10.633Z,4.57
2023-01-06T20:01:40.374Z,4.78
2023-01-06T20:04:21.067Z,8.52
2023-01-06T20:06:51.631Z,10.07
2023-01-06T20:09:22.167Z,13.27
2023-01-06T20:11:53.603Z,8.27
2023-01-06T20:14:22.744Z,6.10
2023-01-06T20:16:52.684Z,5.97
2023-01-06T20:19:22.005Z,6.85
2023-01-06T20:21:52.597Z,6.57
2023-01-06T20:24:21.150Z,7.82
2023-01-06T20:26:51.052Z,8.55
2023-01-06T20:29:20.033Z,6.45
2023-01-06T20:31:49.219Z,6.30
2023-01-06T20:34:18.181Z,6.88
2023-01-06T20:36:46.738Z,6.05
2023-01-06T20:39:16.836Z,6.40
2023-01-06T20:41:45.448Z,7.35
2023-01-06T20:44:14.842Z,6.45
2023-01-06T20:46:43.608Z,5.15
2023-01-06T20:49:13.130Z,5.00
2023-01-06T20:51:42.770Z,4.45
2023-01-06T20:54:11.344Z,4.55
2023-01-06T20:56:42.922Z,4.65
2023-01-06T20:59:12.809Z,4.45
2023-01-06T21:01:41.555Z,4.65
2023-01-06T21:04:10.871Z,5.25
2023-01-06T21:06:39.819Z,6.40
2023-01-06T21:09:08.447Z,6.03
2023-01-06T21:11:37.638Z,5.35
2023-01-06T21:14:07.937Z,4.85
2023-01-06T21:16:37.255Z,5.32
2023-01-06T21:19:05.593Z,8.02
2023-01-06T21:21:34.357Z,4.95
2023-01-06T21:24:03.241Z,5.18
2023-01-06T21:26:31.565Z,5.28
2023-01-06T21:29:00.516Z,4.95
2023-01-06T21:31:30.179Z,4.35
2023-01-06T21:33:58.799Z,4.25
2023-01-06T21:36:27.601Z,3.88
2023-01-06T21:38:56.073Z,3.95
2023-01-06T21:41:42.335Z,3.97
2023-01-06T21:44:10.730Z,4.72
2023-01-06T21:46:41.238Z,5.60
2023-01-06T21:49:09.720Z,12.43
2023-01-06T21:51:39.498Z,5.07
2023-01-06T21:54:07.918Z,4.15
2023-01-06T21:56:36.973Z,5.95
2023-01-06T21:59:05.694Z,14.07
2023-01-06T22:01:34.634Z,5.15
2023-01-06T22:04:05.168Z,4.18
2023-01-06T22:06:35.790Z,3.40
2023-01-06T22:09:07.968Z,3.92
2023-01-06T22:11:39.246Z,5.38
2023-01-06T22:14:10.080Z,21.35
2023-01-06T22:16:40.424Z,8.05
2023-01-06T22:19:13.245Z,12.85
2023-01-06T22:21:44.051Z,5.85
2023-01-06T22:24:16.104Z,4.20
2023-01-06T22:26:44.498Z,7.03
2023-01-06T22:29:12.863Z,4.47
2023-01-06T22:31:41.544Z,10.38
2023-01-06T22:34:11.766Z,13.48
2023-01-06T22:36:40.091Z,10.57
2023-01-06T22:39:09.190Z,9.15
2023-01-06T22:41:37.726Z,6.82
2023-01-06T22:44:06.482Z,4.03
2023-01-06T22:46:34.891Z,3.60
2023-01-06T22:49:03.787Z,4.18
2023-01-06T22:51:33.501Z,5.53
2023-01-06T22:54:02.428Z,14.73
2023-01-06T22:56:31.065Z,16.15
2023-01-06T22:59:01.138Z,6.40
2023-01-06T23:01:29.927Z,16.70
2023-01-06T23:04:00.177Z,8.05
2023-01-06T23:06:29.438Z,11.65
2023-01-06T23:09:01.059Z,12.07
2023-01-06T23:11:32.896Z,11.02
2023-01-06T23:14:02.624Z,8.55
2023-01-06T23:16:31.087Z,5.13
2023-01-06T23:19:00.399Z,5.22
2023-01-06T23:21:31.252Z,4.43
2023-01-06T23:24:04.763Z,4.15
2023-01-06T23:26:35.307Z,4.20
2023-01-06T23:29:03.912Z,4.18
2023-01-06T23:31:36.446Z,5.10
2023-01-06T23:34:07.884Z,4.30
2023-01-06T23:36:38.233Z,4.78
2023-01-06T23:39:12.569Z,4.88
2023-01-06T23:41:41.522Z,4.03
2023-01-06T23:44:16.112Z,3.72
2023-01-06T23:46:45.664Z,3.78
2023-01-06T23:49:17.164Z,4.00
2023-01-06T23:51:45.978Z,3.53
2023-01-06T23:54:17.654Z,3.17
2023-01-06T23:56:46.349Z,3.38
2023-01-06T23:59:15.228Z,4.15
